sensor_id;sensor_type;location;lat;lon;timestamp;P1;durP1;ratioP1;P2;durP2;ratioP2
60213;SDS011;46080;46.904;19.688;2022-09-09T00:00:24;13.45;;;9.68;;
60213;SDS011;46080;46.904;19.688;2022-09-09T00:02:54;11.65;;;10.02;;
60213;SDS011;46080;46.904;19.688;2022-09-09T00:08:42;9.82;;;8.82;;
60213;SDS011;46080;46.904;19.688;2022-09-09T00:11:10;14.55;;;9.52;;
60213;SDS011;46080;46.904;19.688;2022-09-09T00:13:44;15.05;;;11.00;;
60213;SDS011;46080;46.904;19.688;2022-09-09T00:24:28;14.18;;;10.18;;
60213;SDS011;46080;46.904;19.688;2022-09-09T00:32:45;17.92;;;11.75;;
60213;SDS011;46080;46.904;19.688;2022-09-09T00:35:22;17.80;;;11.75;;
60213;SDS011;46080;46.904;19.688;2022-09-09T00:37:51;16.60;;;11.68;;
60213;SDS011;46080;46.904;19.688;2022-09-09T00:40:24;17.35;;;11.80;;
60213;SDS011;46080;46.904;19.688;2022-09-09T00:51:24;17.73;;;12.55;;
60213;SDS011;46080;46.904;19.688;2022-09-09T00:56:26;21.67;;;14.20;;
60213;SDS011;46080;46.904;19.688;2022-09-09T00:59:04;22.55;;;14.55;;
60213;SDS011;46080;46.904;19.688;2022-09-09T01:01:33;23.35;;;15.63;;
60213;SDS011;46080;46.904;19.688;2022-09-09T01:04:00;27.27;;;14.35;;
60213;SDS011;46080;46.904;19.688;2022-09-09T01:06:36;27.00;;;15.85;;
60213;SDS011;46080;46.904;19.688;2022-09-09T01:12:16;25.63;;;14.13;;
60213;SDS011;46080;46.904;19.688;2022-09-09T01:14:53;24.85;;;16.38;;
60213;SDS011;46080;46.904;19.688;2022-09-09T01:17:32;29.17;;;17.25;;
60213;SDS011;46080;46.904;19.688;2022-09-09T01:20:15;27.63;;;15.68;;
60213;SDS011;46080;46.904;19.688;2022-09-09T01:23:06;27.42;;;16.50;;
60213;SDS011;46080;46.904;19.688;2022-09-09T01:28:54;31.63;;;16.25;;
60213;SDS011;46080;46.904;19.688;2022-09-09T01:33:57;33.63;;;17.10;;
60213;SDS011;46080;46.904;19.688;2022-09-09T01:39:18;23.52;;;14.55;;
60213;SDS011;46080;46.904;19.688;2022-09-09T01:41:52;20.50;;;13.73;;
60213;SDS011;46080;46.904;19.688;2022-09-09T01:44:19;22.88;;;14.05;;
60213;SDS011;46080;46.904;19.688;2022-09-09T01:46:45;22.60;;;14.57;;
60213;SDS011;46080;46.904;19.688;2022-09-09T01:49:15;26.13;;;13.98;;
60213;SDS011;46080;46.904;19.688;2022-09-09T01:51:42;25.40;;;14.65;;
60213;SDS011;46080;46.904;19.688;2022-09-09T01:54:11;24.02;;;14.82;;
60213;SDS011;46080;46.904;19.688;2022-09-09T01:56:54;19.92;;;14.38;;
60213;SDS011;46080;46.904;19.688;2022-09-09T02:00:18;28.90;;;15.27;;
60213;SDS011;46080;46.904;19.688;2022-09-09T02:05:52;23.83;;;14.23;;
60213;SDS011;46080;46.904;19.688;2022-09-09T02:08:46;24.70;;;12.27;;
60213;SDS011;46080;46.904;19.688;2022-09-09T02:11:18;23.70;;;15.90;;
60213;SDS011;46080;46.904;19.688;2022-09-09T02:13:57;26.38;;;15.48;;
60213;SDS011;46080;46.904;19.688;2022-09-09T02:16:42;26.65;;;15.07;;
60213;SDS011;46080;46.904;19.688;2022-09-09T02:19:29;23.50;;;13.93;;
60213;SDS011;46080;46.904;19.688;2022-09-09T02:22:11;23.52;;;13.23;;
60213;SDS011;46080;46.904;19.688;2022-09-09T02:24:38;21.38;;;13.15;;
